createdAt,value
2023-03-17T00:03:08.811Z,45.04
2023-03-17T00:07:08.957Z,45.18
2023-03-17T00:11:09.103Z,45.31
2023-03-17T00:15:09.247Z,46.34
2023-03-17T00:19:09.417Z,46.57
2023-03-17T00:23:09.602Z,46.45
2023-03-17T00:27:09.746Z,46.38
2023-03-17T00:31:09.941Z,45.38
2023-03-17T00:35:10.040Z,45.94
2023-03-17T00:39:10.165Z,46.12
2023-03-17T00:43:10.312Z,46.37
2023-03-17T00:47:10.415Z,45.95
2023-03-17T00:51:10.562Z,44.87
2023-03-17T00:55:10.683Z,45.33
2023-03-17T00:59:10.854Z,45.45
2023-03-17T01:03:10.976Z,43.68
2023-03-17T01:07:11.076Z,44.47
2023-03-17T01:11:11.157Z,44.50
2023-03-17T01:15:11.296Z,44.15
2023-03-17T01:19:11.379Z,45.10
2023-03-17T01:23:11.500Z,47.78
2023-03-17T01:27:11.672Z,49.62
2023-03-17T01:31:11.821Z,50.08
2023-03-17T01:35:11.941Z,51.33
2023-03-17T01:39:12.084Z,51.83
2023-03-17T01:43:12.185Z,52.54
2023-03-17T01:47:12.299Z,51.94
2023-03-17T01:51:12.473Z,50.64
2023-03-17T01:55:12.547Z,50.14
2023-03-17T01:59:12.718Z,50.49
2023-03-17T02:03:12.785Z,50.68
2023-03-17T02:07:12.949Z,50.31
2023-03-17T02:11:13.016Z,49.13
2023-03-17T04:51:18.479Z,50.17
2023-03-17T04:55:18.581Z,53.44
2023-03-17T04:59:18.713Z,54.45
2023-03-17T05:03:26.755Z,52.38
2023-03-17T05:07:19.787Z,52.92
2023-03-17T05:11:18.755Z,52.89
2023-03-17T05:15:18.745Z,52.44
2023-03-17T05:19:18.854Z,52.77
2023-03-17T05:23:18.988Z,52.40
2023-03-17T05:27:19.096Z,53.07
2023-03-17T05:31:19.319Z,52.72
2023-03-17T05:35:19.330Z,51.74
2023-03-17T05:39:19.479Z,50.82
2023-03-17T05:43:19.546Z,51.81
2023-03-17T05:47:19.750Z,52.50
2023-03-17T05:51:19.874Z,51.90
2023-03-17T05:55:19.964Z,50.08
2023-03-17T05:59:20.164Z,52.34
2023-03-17T06:03:20.355Z,53.57
2023-03-17T06:07:20.478Z,55.03
2023-03-17T06:11:22.396Z,53.85
2023-03-17T06:15:20.777Z,52.31
2023-03-17T06:19:20.945Z,51.52
2023-03-17T06:23:21.058Z,52.88
2023-03-17T06:27:21.146Z,51.89
2023-03-17T06:31:21.344Z,50.42
2023-03-17T06:35:21.536Z,50.09
2023-03-17T06:39:21.618Z,50.05
2023-03-17T06:43:21.765Z,51.05
2023-03-17T06:47:23.561Z,50.85
2023-03-17T06:51:21.886Z,50.26
2023-03-17T06:55:21.841Z,50.37
2023-03-17T06:59:21.776Z,49.18
2023-03-17T07:03:22.090Z,48.86
2023-03-17T07:07:21.740Z,46.63
2023-03-17T07:11:21.678Z,45.01
2023-03-17T07:15:21.685Z,46.34
2023-03-17T07:19:21.685Z,45.67
2023-03-17T07:23:21.631Z,45.99
2023-03-17T07:27:23.026Z,46.40
2023-03-17T07:31:21.578Z,42.41
2023-03-17T07:35:21.523Z,40.91
2023-03-17T07:39:21.438Z,41.25
2023-03-17T07:43:21.392Z,42.36
2023-03-17T07:47:21.360Z,42.58
2023-03-17T07:51:21.578Z,43.42
2023-03-17T07:55:21.636Z,43.97
2023-03-17T07:59:21.750Z,43.44
2023-03-17T08:03:21.929Z,44.74
2023-03-17T08:07:22.044Z,44.81
2023-03-17T08:11:22.105Z,42.92
2023-03-17T08:15:22.211Z,43.72
2023-03-17T08:19:22.363Z,45.19
2023-03-17T08:23:22.572Z,43.17
2023-03-17T08:27:22.687Z,41.43
2023-03-17T08:31:22.947Z,40.51
2023-03-17T08:35:23.040Z,39.06
2023-03-17T08:39:23.088Z,39.28
2023-03-17T08:43:23.263Z,39.78
2023-03-17T08:47:23.383Z,39.70
2023-03-17T08:51:24.556Z,39.62
2023-03-17T08:55:23.677Z,37.79
2023-03-17T08:59:23.779Z,35.90
2023-03-17T09:03:23.942Z,34.40
2023-03-17T09:07:24.056Z,33.55
2023-03-17T09:11:24.122Z,33.69
2023-03-17T09:15:24.246Z,33.36
2023-03-17T09:19:24.337Z,32.57
2023-03-17T09:23:24.426Z,30.58
2023-03-17T09:27:24.517Z,29.06
2023-03-17T09:31:24.714Z,29.77
2023-03-17T09:35:24.784Z,29.16
2023-03-17T09:39:24.878Z,28.03
2023-03-17T09:43:24.988Z,28.24
2023-03-17T09:47:25.196Z,27.84
2023-03-17T09:51:25.284Z,26.93
2023-03-17T09:55:25.417Z,27.38
2023-03-17T09:59:25.547Z,26.65
2023-03-17T10:03:28.579Z,27.52
2023-03-17T10:07:25.684Z,26.41
2023-03-17T10:11:25.547Z,26.15
2023-03-17T10:15:25.539Z,26.20
2023-03-17T10:19:25.494Z,25.99
2023-03-17T10:23:25.525Z,25.54
2023-03-17T10:27:25.417Z,25.56
2023-03-17T10:31:25.416Z,25.32
2023-03-17T10:35:25.631Z,24.89
2023-03-17T10:39:25.305Z,24.57
2023-03-17T10:43:25.257Z,24.67
2023-03-17T10:47:25.254Z,24.29
2023-03-17T10:51:25.216Z,24.10
2023-03-17T10:55:25.189Z,23.71
2023-03-17T10:59:25.182Z,23.27
2023-03-17T11:03:25.124Z,22.54
2023-03-17T11:07:25.074Z,22.83
2023-03-17T11:11:25.026Z,23.43
2023-03-17T11:15:25.091Z,22.80
2023-03-17T11:19:25.209Z,21.63
2023-03-17T11:23:25.353Z,21.52
2023-03-17T11:27:25.481Z,21.13
2023-03-17T11:31:25.602Z,20.98
2023-03-17T11:35:25.687Z,20.60
2023-03-17T11:39:25.847Z,20.26
2023-03-17T11:43:25.956Z,19.95
2023-03-17T11:47:26.124Z,18.94
2023-03-17T11:51:26.211Z,19.34
2023-03-17T11:55:26.381Z,18.84
2023-03-17T11:59:26.635Z,20.27
2023-03-17T12:03:26.741Z,19.07
2023-03-17T12:07:26.786Z,18.64
2023-03-17T12:11:26.941Z,18.57
2023-03-17T12:15:27.219Z,17.96
2023-03-17T12:19:27.168Z,17.70
2023-03-17T12:23:27.630Z,17.63
2023-03-17T12:27:27.408Z,17.24
2023-03-17T12:31:27.630Z,15.69
2023-03-17T12:35:27.627Z,16.62
2023-03-17T12:39:27.765Z,16.31
2023-03-17T12:43:27.895Z,18.09
2023-03-17T12:47:27.979Z,18.30
2023-03-17T12:51:28.111Z,16.81
2023-03-17T12:55:28.254Z,17.02
2023-03-17T12:59:31.126Z,16.86
2023-03-17T13:03:28.375Z,17.60
2023-03-17T13:07:28.210Z,17.29
2023-03-17T13:11:28.198Z,17.71
2023-03-17T13:15:28.211Z,17.26
2023-03-17T13:19:28.118Z,16.93
2023-03-17T13:23:28.067Z,16.84
2023-03-17T13:27:28.021Z,16.94
2023-03-17T13:31:28.003Z,16.81
2023-03-17T13:35:27.951Z,16.38
2023-03-17T13:39:27.931Z,17.00
2023-03-17T13:43:27.933Z,16.42
2023-03-17T13:47:27.859Z,16.91
2023-03-17T13:51:27.821Z,16.09
2023-03-17T13:55:27.814Z,15.76
2023-03-17T13:59:27.747Z,16.26
2023-03-17T14:03:27.828Z,15.62
2023-03-17T14:07:27.881Z,14.87
2023-03-17T14:11:27.955Z,14.87
2023-03-17T14:15:28.198Z,15.07
2023-03-17T14:19:28.208Z,15.07
2023-03-17T14:23:28.320Z,15.41
2023-03-17T14:27:28.470Z,16.06
2023-03-17T14:31:28.618Z,15.87
2023-03-17T14:35:28.708Z,15.56
2023-03-17T14:39:28.875Z,15.33
2023-03-17T14:43:28.988Z,15.82
2023-03-17T14:47:29.066Z,15.62
2023-03-17T14:51:29.176Z,15.47
2023-03-17T14:55:29.734Z,15.63
2023-03-17T14:59:29.435Z,15.50
2023-03-17T15:03:29.572Z,15.77
2023-03-17T15:07:29.684Z,15.57
2023-03-17T15:11:29.812Z,16.26
2023-03-17T15:15:29.977Z,16.36
2023-03-17T15:19:30.113Z,15.87
2023-03-17T15:23:30.251Z,16.19
2023-03-17T15:27:30.441Z,16.51
2023-03-17T15:31:30.573Z,17.11
2023-03-17T15:35:30.824Z,16.93
2023-03-17T15:39:30.777Z,16.98
2023-03-17T15:43:30.974Z,18.05
2023-03-17T15:47:31.112Z,18.09
2023-03-17T15:51:31.203Z,17.69
2023-03-17T15:55:31.328Z,18.47
2023-03-17T15:59:31.453Z,18.86
2023-03-17T16:03:31.596Z,18.58
2023-03-17T16:07:31.711Z,18.59
2023-03-17T16:11:31.873Z,19.60
2023-03-17T16:15:32.020Z,19.33
2023-03-17T16:19:32.144Z,18.97
2023-03-17T16:23:32.280Z,19.67
2023-03-17T16:27:32.504Z,19.88
2023-03-17T16:31:32.498Z,19.43
2023-03-17T16:35:32.630Z,20.00
2023-03-17T16:39:32.746Z,20.04
2023-03-17T16:43:32.991Z,19.60
2023-03-17T16:47:32.985Z,19.80
2023-03-17T16:51:33.082Z,20.03
2023-03-17T16:55:33.214Z,20.32
2023-03-17T16:59:33.343Z,20.45
2023-03-17T17:03:33.439Z,20.66
2023-03-17T17:07:33.549Z,20.47
2023-03-17T17:11:33.708Z,21.02
2023-03-17T17:15:33.855Z,20.45
2023-03-17T17:19:33.953Z,21.13
2023-03-17T17:23:34.140Z,21.48
2023-03-17T17:27:34.204Z,21.14
2023-03-17T17:31:34.366Z,21.37
2023-03-17T17:35:34.484Z,21.62
2023-03-17T17:39:34.575Z,21.43
2023-03-17T17:43:34.795Z,21.94
2023-03-17T17:47:34.910Z,21.92
2023-03-17T17:51:35.035Z,22.69
2023-03-17T17:55:35.210Z,22.64
2023-03-17T17:59:35.270Z,22.67
2023-03-17T18:03:35.422Z,22.67
2023-03-17T18:07:35.581Z,22.70
2023-03-17T18:11:35.718Z,22.49
2023-03-17T18:15:35.830Z,22.46
2023-03-17T18:19:35.898Z,22.68
2023-03-17T18:23:36.062Z,22.93
2023-03-17T18:27:36.179Z,23.41
2023-03-17T18:31:36.428Z,23.69
2023-03-17T18:35:36.527Z,23.76
2023-03-17T18:39:36.608Z,23.75
2023-03-17T18:43:36.758Z,24.19
2023-03-17T18:47:36.873Z,24.54
2023-03-17T18:51:37.002Z,24.79
2023-03-17T18:55:37.127Z,24.90
2023-03-17T18:59:37.215Z,24.98
2023-03-17T19:03:37.474Z,25.27
2023-03-17T19:07:40.188Z,25.20
2023-03-17T19:11:37.472Z,24.87
2023-03-17T19:15:37.419Z,24.82
2023-03-17T19:19:37.379Z,25.02
2023-03-17T19:23:37.358Z,25.38
2023-03-17T19:27:37.328Z,25.49
2023-03-17T19:31:37.254Z,25.49
2023-03-17T19:35:37.274Z,25.54
2023-03-17T19:39:37.207Z,25.39
2023-03-17T19:43:41.276Z,25.95
2023-03-17T19:47:37.147Z,25.60
2023-03-17T19:51:37.105Z,25.41
2023-03-17T19:55:37.078Z,25.70
2023-03-17T19:59:37.023Z,25.82
2023-03-17T20:03:37.001Z,25.90
2023-03-17T20:07:36.956Z,25.81
2023-03-17T20:11:36.938Z,26.28
2023-03-17T20:15:37.136Z,26.91
2023-03-17T20:19:37.200Z,27.15
2023-03-17T20:23:37.303Z,27.37
2023-03-17T20:27:37.438Z,29.04
2023-03-17T20:31:37.493Z,29.03
2023-03-17T20:35:37.647Z,30.02
2023-03-17T20:39:37.821Z,30.95
2023-03-17T20:43:37.890Z,31.31
2023-03-17T20:47:38.027Z,31.51
2023-03-17T20:51:38.142Z,31.59
2023-03-17T20:55:38.220Z,33.90
2023-03-17T20:59:38.345Z,31.95
2023-03-17T21:03:38.440Z,32.54
2023-03-17T21:07:38.527Z,32.15
2023-03-17T21:11:38.673Z,30.22
2023-03-17T21:15:38.782Z,32.10
2023-03-17T21:19:38.922Z,32.54
2023-03-17T21:23:39.047Z,33.76
2023-03-17T21:27:39.168Z,34.38
2023-03-17T21:31:39.315Z,34.43
2023-03-17T21:35:39.439Z,32.80
2023-03-17T21:39:39.557Z,33.32
2023-03-17T21:43:39.656Z,31.33
2023-03-17T21:47:39.774Z,33.82
2023-03-17T21:51:39.901Z,34.86
2023-03-17T21:55:40.026Z,36.83
2023-03-17T21:59:40.134Z,35.60
2023-03-17T22:03:40.234Z,37.09
2023-03-17T22:07:40.339Z,36.19
2023-03-17T22:11:40.423Z,35.37
2023-03-17T22:15:40.548Z,35.78
2023-03-17T22:19:40.647Z,35.07
2023-03-17T22:23:40.783Z,35.13
2023-03-17T22:27:40.955Z,36.16
2023-03-17T22:31:41.115Z,36.98
2023-03-17T22:35:41.155Z,38.33
2023-03-17T22:39:41.218Z,39.08
2023-03-17T22:43:41.352Z,38.82
2023-03-17T22:47:41.407Z,39.16
2023-03-17T22:51:41.559Z,38.81
2023-03-17T22:55:41.676Z,38.25
2023-03-17T22:59:41.803Z,38.98
2023-03-17T23:03:41.945Z,37.92
2023-03-17T23:07:50.390Z,37.41
2023-03-17T23:11:43.039Z,36.00
2023-03-17T23:15:41.969Z,36.38
2023-03-17T23:19:41.954Z,37.84
2023-03-17T23:23:41.959Z,37.50
2023-03-17T23:27:42.053Z,37.92
2023-03-17T23:31:42.165Z,36.90
2023-03-17T23:35:42.305Z,38.14
2023-03-17T23:39:42.430Z,39.06
2023-03-17T23:43:42.497Z,38.46
2023-03-17T23:47:42.616Z,38.95
2023-03-17T23:51:42.724Z,36.82
2023-03-17T23:55:42.855Z,38.10
2023-03-17T23:59:43.013Z,36.94
